Airfield :
LOGIN :

Register | Disclaimer

   EN    FR    IT 

 










Legend :    VFR   Marginal VFR   IFR   Intensive IFR   Very Intensive IFR
Visi :
Ceiling :
>= 8 km
>= 3000ft
5 to 8 km
1000 to 3000 ft
1500m to 5 km
500 to 1000 ft
800 to 1500m
200 to 500 ft
< 800m
< 200 ft
Symbols :   Thunderstorms  Fog  Heavy snow  Heavy precipitations  Wind > 20 kt
SIGMETs :     Misc.  Thunderstorms  Icing  Turbulence  Mountain Waves  Volcanic Ashes







- Airport Elevation : 122 ft
- IATA code : TXL


EDDT - Berlin Tegel Int.

CURRENT METAR :
  • 200720Z 27011KT 9999 FEW014 SCT100 BKN260 04/02 Q1013 NOSIG

EXPIRED METARs :
  • 200650Z 28010KT 9999 BKN015 04/03 Q1013 TEMPO BKN013
  • 200620Z 28011KT 9999 BKN013 BKN060 04/02 Q1013 NOSIG
  • 200550Z 27010KT 250V320 9999 SCT010 BKN050 04/03 Q1013 TEMPO BKN012
  • 200520Z 28009KT 250V310 9999 -RADZ SCT007 BKN011 04/03 Q1013 NOSIG
  • 200450Z 27009KT 9999 -RADZ BKN007 04/03 Q1012 TEMPO BKN010

TAF TAF EDDT
Valid from the 20 at 06:00 until the 21 at 06:00 UTC


200500Z 2006/2106 27009KT 9999 BKN013
PROB30
TEMPO 2006/2008 3500 -RADZ BKN007
BECMG 2007/2009 BKN025
TEMPO 2015/2023 4500 -RA BKN009
BECMG 2019/2021 21005KT
BECMG 2023/2101 13004KT SCT004 BKN006
BECMG 2102/2104 4000 -RA
No reported NOTAMs for that airfield.



MET'MAP, your aeronautical weather chart ! - Copyright ORBIFLY December 2007 - Disclaimer

ORBIFLY MET'MAP TEAM :

Programming & Development : Alexandra Zaïnal
Concept & Development : Baudouin d'Aumeries
Co-Development & Prog : Marc-Olivier Méhu
Technical & hardware support : Manuel Goepfert

Contact : metmap@orbifly.com




SOURCES & CREDITS :

   NOAA